| time (UTC) | temp C | wind direction | speed KPH | gust KPH | rain 1hr cm | rain 24hr cm | rain mn cm | humidity % | barometer mb |
| 20260510015905 | 15 | 288 | 3.2 | 3.2 | 0.00 | 0.00 | 0.00 | 68 | 1009.0 |
| 20260510015401 | 15 | 288 | 1.6 | 1.6 | 0.00 | 0.00 | 0.00 | 68 | 1008.8 |
| 20260510014857 | 15 | 304 | 1.6 | 1.6 | 0.00 | 0.00 | 0.00 | 68 | 1008.6 |
| 20260510014354 | 15 | 327 | 0.0 | 0.0 | 0.00 | 0.00 | 0.00 | 68 | 1008.7 |
| 20260510013850 | 15 | 310 | 0.0 | 0.0 | 0.00 | 0.00 | 0.00 | 67 | 1008.5 |
| 20260510013346 | 15 | 315 | 1.6 | 3.2 | 0.00 | 0.00 | 0.00 | 66 | 1008.5 |
| 20260510012841 | 15 | 305 | 1.6 | 1.6 | 0.00 | 0.00 | 0.00 | 68 | 1008.5 |
| 20260510012341 | 15 | 311 | 0.0 | 1.6 | 0.00 | 0.00 | 0.00 | 69 | 1008.2 |
| 20260510011836 | 15 | 346 | 0.0 | 1.6 | 0.00 | 0.00 | 0.00 | 69 | 1008.2 |
| 20260510011331 | 16 | 312 | 0.0 | 1.6 | 0.00 | 0.00 | 0.00 | 68 | 1007.9 |
| 20260510010828 | 16 | 304 | 1.6 | 1.6 | 0.00 | 0.00 | 0.00 | 66 | 1008.1 |
| 20260510010326 | 16 | 316 | 0.0 | 0.0 | 0.00 | 0.00 | 0.00 | 65 | 1008.0 |
| 20260510005822 | 17 | 345 | 0.0 | 1.6 | 0.00 | 0.00 | 0.00 | 64 | 1007.9 |
| 20260510005319 | 17 | 304 | 1.6 | 3.2 | 0.00 | 0.00 | 0.00 | 62 | 1008.0 |
| 20260510004816 | 17 | 293 | 0.0 | 3.2 | 0.00 | 0.00 | 0.00 | 60 | 1007.9 |
| 20260510004314 | 17 | 289 | 1.6 | 3.2 | 0.00 | 0.00 | 0.00 | 62 | 1007.7 |
| 20260510003811 | 18 | 357 | 1.6 | 1.6 | 0.00 | 0.00 | 0.00 | 61 | 1007.5 |
| 20260510003308 | 18 | 318 | 1.6 | 1.6 | 0.00 | 0.00 | 0.00 | 59 | 1007.4 |
| 20260510002806 | 18 | 294 | 1.6 | 3.2 | 0.00 | 0.00 | 0.00 | 58 | 1007.4 |
| 20260510002306 | 18 | 302 | 0.0 | 1.6 | 0.00 | 0.00 | 0.00 | 57 | 1007.1 |
| 20260510001800 | 19 | 296 | 3.2 | 4.8 | 0.00 | 0.00 | 0.00 | 56 | 1007.1 |
| 20260510001259 | 19 | 287 | 3.2 | 4.8 | 0.00 | 0.00 | 0.00 | 55 | 1007.2 |
| 20260510000754 | 19 | 296 | 1.6 | 3.2 | 0.00 | 0.00 | 0.00 | 55 | 1007.0 |
| 20260510000252 | 19 | 285 | 0.0 | 1.6 | 0.00 | 0.00 | 0.00 | 57 | 1006.9 |
| 20260509235749 | 20 | 318 | 0.0 | 0.0 | 0.00 | 0.00 | 0.00 | 55 | 1007.1 |
| 20260509235245 | 20 | 307 | 1.6 | 6.4 | 0.00 | 0.00 | 0.00 | 54 | 1007.0 |
| 20260509234741 | 20 | 315 | 3.2 | 3.2 | 0.00 | 0.00 | 0.00 | 54 | 1006.9 |
| 20260509234238 | 20 | 252 | 0.0 | 3.2 | 0.00 | 0.00 | 0.00 | 53 | 1006.9 |
| 20260509233737 | 20 | 253 | 4.8 | 4.8 | 0.00 | 0.00 | 0.00 | 53 | 1006.8 |
| 20260509233234 | 20 | 295 | 0.0 | 4.8 | 0.00 | 0.00 | 0.00 | 53 | 1006.8 |
| 20260509232729 | 20 | 283 | 1.6 | 4.8 | 0.00 | 0.00 | 0.00 | 52 | 1007.0 |
| 20260509232227 | 20 | 279 | 3.2 | 6.4 | 0.00 | 0.00 | 0.00 | 52 | 1007.0 |
| 20260509231723 | 20 | 288 | 3.2 | 4.8 | 0.00 | 0.00 | 0.00 | 53 | 1006.9 |
| 20260509231220 | 20 | 293 | 3.2 | 6.4 | 0.00 | 0.00 | 0.00 | 52 | 1006.8 |
| 20260509230718 | 20 | 311 | 4.8 | 6.4 | 0.00 | 0.00 | 0.00 | 51 | 1006.9 |
| 20260509230214 | 21 | 338 | 3.2 | 6.4 | 0.00 | 0.00 | 0.00 | 51 | 1006.8 |
| 20260509225710 | 21 | 163 | 3.2 | 6.4 | 0.00 | 0.00 | 0.00 | 50 | 1006.7 |
| 20260509225207 | 21 | 256 | 1.6 | 4.8 | 0.00 | 0.00 | 0.00 | 51 | 1006.6 |
| 20260509224702 | 21 | 229 | 3.2 | 11.3 | 0.00 | 0.00 | 0.00 | 51 | 1006.9 |
| 20260509224159 | 21 | 263 | 1.6 | 4.8 | 0.00 | 0.00 | 0.00 | 51 | 1006.8 |
| 20260509223656 | 21 | 261 | 3.2 | 4.8 | 0.00 | 0.00 | 0.00 | 50 | 1006.7 |
| 20260509223153 | 21 | 244 | 6.4 | 12.9 | 0.00 | 0.00 | 0.00 | 50 | 1006.9 |
| 20260509222650 | 21 | 203 | 3.2 | 4.8 | 0.00 | 0.00 | 0.00 | 50 | 1006.7 |
| 20260509222145 | 21 | 198 | 3.2 | 6.4 | 0.00 | 0.00 | 0.00 | 50 | 1006.8 |
| 20260509221641 | 21 | 309 | 4.8 | 6.4 | 0.00 | 0.00 | 0.00 | 50 | 1006.8 |
| 20260509221137 | 21 | 331 | 3.2 | 9.7 | 0.00 | 0.00 | 0.00 | 49 | 1006.9 |
| 20260509220634 | 21 | 320 | 1.6 | 6.4 | 0.00 | 0.00 | 0.00 | 48 | 1006.7 |
| 20260509220130 | 21 | 157 | 4.8 | 11.3 | 0.00 | 0.00 | 0.00 | 47 | 1006.6 |
| 20260509215626 | 22 | 134 | 3.2 | 14.5 | 0.00 | 0.00 | 0.00 | 47 | 1006.6 |
| 20260509215123 | 22 | 268 | 3.2 | 6.4 | 0.00 | 0.00 | 0.00 | 47 | 1006.5 |
| 20260509214620 | 23 | 320 | 3.2 | 6.4 | 0.00 | 0.00 | 0.00 | 46 | 1006.6 |
| 20260509214117 | 22 | 296 | 3.2 | 6.4 | 0.00 | 0.00 | 0.00 | 46 | 1006.8 |
| 20260509213613 | 22 | 177 | 3.2 | 9.7 | 0.00 | 0.00 | 0.00 | 46 | 1006.8 |
| 20260509213109 | 22 | 231 | 3.2 | 11.3 | 0.00 | 0.00 | 0.00 | 47 | 1006.6 |
| 20260509212607 | 22 | 213 | 9.7 | 12.9 | 0.00 | 0.00 | 0.00 | 46 | 1006.7 |
| 20260509212104 | 22 | 262 | 6.4 | 11.3 | 0.00 | 0.00 | 0.00 | 44 | 1006.6 |
| 20260509211559 | 23 | 228 | 4.8 | 12.9 | 0.00 | 0.00 | 0.00 | 42 | 1006.4 |
| 20260509211056 | 23 | 297 | 3.2 | 11.3 | 0.00 | 0.00 | 0.00 | 43 | 1006.3 |
| 20260509210553 | 22 | 300 | 9.7 | 12.9 | 0.00 | 0.00 | 0.00 | 43 | 1006.3 |
| 20260509210051 | 21 | 306 | 1.6 | 6.4 | 0.00 | 0.00 | 0.00 | 46 | 1006.3 |
| 20260509205549 | 21 | 282 | 6.4 | 11.3 | 0.00 | 0.00 | 0.00 | 44 | 1006.5 |
| 20260509205045 | 21 | 212 | 3.2 | 9.7 | 0.00 | 0.00 | 0.00 | 45 | 1006.4 |
| 20260509204542 | 21 | 292 | 3.2 | 11.3 | 0.00 | 0.00 | 0.00 | 44 | 1006.3 |
| 20260509204038 | 22 | 272 | 6.4 | 14.5 | 0.00 | 0.00 | 0.00 | 43 | 1006.1 |
| 20260509203534 | 23 | 307 | 6.4 | 12.9 | 0.00 | 0.00 | 0.00 | 41 | 1006.0 |
| 20260509203033 | 23 | 255 | 6.4 | 12.9 | 0.00 | 0.00 | 0.00 | 42 | 1005.9 |
| 20260509202533 | 23 | 220 | 8.0 | 14.5 | 0.00 | 0.00 | 0.00 | 44 | 1005.9 |
| 20260509202028 | 23 | 136 | 3.2 | 11.3 | 0.00 | 0.00 | 0.00 | 44 | 1006.0 |
| 20260509201524 | 23 | 290 | 3.2 | 12.9 | 0.00 | 0.00 | 0.00 | 44 | 1006.0 |
| 20260509201022 | 22 | 203 | 9.7 | 14.5 | 0.00 | 0.00 | 0.00 | 44 | 1006.0 |
| 20260509200521 | 22 | 153 | 6.4 | 14.5 | 0.00 | 0.00 | 0.00 | 44 | 1006.1 |
| 20260509200018 | 22 | 285 | 11.3 | 14.5 | 0.00 | 0.00 | 0.00 | 45 | 1006.1 |
| 20260509195514 | 23 | 225 | 9.7 | 12.9 | 0.00 | 0.00 | 0.00 | 44 | 1006.4 |
| 20260509195013 | 22 | 278 | 12.9 | 16.1 | 0.00 | 0.00 | 0.00 | 43 | 1006.4 |
| 20260509194509 | 22 | 288 | 3.2 | 12.9 | 0.00 | 0.00 | 0.00 | 44 | 1006.4 |
| 20260509194007 | 22 | 238 | 3.2 | 6.4 | 0.00 | 0.00 | 0.00 | 43 | 1006.5 |
| 20260509193506 | 22 | 199 | 6.4 | 14.5 | 0.00 | 0.00 | 0.00 | 45 | 1006.7 |
| 20260509193003 | 22 | 187 | 6.4 | 12.9 | 0.00 | 0.00 | 0.00 | 47 | 1006.5 |
| 20260509192459 | 22 | 293 | 1.6 | 6.4 | 0.00 | 0.00 | 0.00 | 45 | 1006.6 |
| 20260509191954 | 22 | 211 | 3.2 | 4.8 | 0.00 | 0.00 | 0.00 | 47 | 1006.7 |
| 20260509191450 | 22 | 317 | 4.8 | 11.3 | 0.00 | 0.00 | 0.00 | 45 | 1006.8 |
| 20260509190946 | 22 | 285 | 6.4 | 11.3 | 0.00 | 0.00 | 0.00 | 45 | 1006.9 |
| 20260509190443 | 22 | 164 | 3.2 | 14.5 | 0.00 | 0.00 | 0.00 | 45 | 1007.1 |
| 20260509185941 | 22 | 302 | 8.0 | 14.5 | 0.00 | 0.00 | 0.00 | 44 | 1007.0 |
| 20260509185438 | 22 | 210 | 3.2 | 12.9 | 0.00 | 0.00 | 0.00 | 43 | 1006.9 |
| 20260509184934 | 22 | 223 | 9.7 | 12.9 | 0.00 | 0.00 | 0.00 | 44 | 1007.0 |
| 20260509184432 | 22 | 172 | 8.0 | 12.9 | 0.00 | 0.00 | 0.00 | 44 | 1007.2 |
| 20260509183928 | 22 | 306 | 8.0 | 16.1 | 0.00 | 0.00 | 0.00 | 44 | 1007.2 |
| 20260509183423 | 21 | 197 | 12.9 | 14.5 | 0.00 | 0.00 | 0.00 | 44 | 1007.3 |
| 20260509182920 | 21 | 219 | 8.0 | 16.1 | 0.00 | 0.00 | 0.00 | 47 | 1007.2 |
| 20260509182416 | 21 | 152 | 4.8 | 9.7 | 0.00 | 0.00 | 0.00 | 47 | 1007.3 |
| 20260509181914 | 22 | 222 | 4.8 | 16.1 | 0.00 | 0.00 | 0.00 | 50 | 1007.4 |
| 20260509181411 | 21 | 197 | 3.2 | 4.8 | 0.00 | 0.00 | 0.00 | 52 | 1007.3 |
| 20260509180908 | 20 | 151 | 1.6 | 4.8 | 0.00 | 0.00 | 0.00 | 55 | 1007.5 |
| 20260509180404 | 20 | 320 | 3.2 | 6.4 | 0.00 | 0.00 | 0.00 | 51 | 1007.5 |
| 20260509175901 | 20 | 202 | 1.6 | 9.7 | 0.00 | 0.00 | 0.00 | 53 | 1007.6 |
| 20260509175357 | 20 | 163 | 8.0 | 12.9 | 0.00 | 0.00 | 0.00 | 51 | 1007.7 |
| 20260509174853 | 20 | 183 | 3.2 | 9.7 | 0.00 | 0.00 | 0.00 | 53 | 1007.8 |
| 20260509174350 | 20 | 197 | 3.2 | 4.8 | 0.00 | 0.00 | 0.00 | 53 | 1007.8 |
| 20260509173845 | 20 | 271 | 1.6 | 4.8 | 0.00 | 0.00 | 0.00 | 54 | 1008.1 |
| 20260509173341 | 20 | 222 | 3.2 | 12.9 | 0.00 | 0.00 | 0.00 | 52 | 1008.1 |
| 20260509172837 | 20 | 317 | 0.0 | 12.9 | 0.00 | 0.00 | 0.00 | 52 | 1008.1 |
| 20260509172334 | 20 | 180 | 9.7 | 12.9 | 0.00 | 0.00 | 0.00 | 51 | 1008.3 |
| 20260509171830 | 20 | 184 | 4.8 | 6.4 | 0.00 | 0.00 | 0.00 | 52 | 1008.2 |
| 20260509171326 | 19 | 224 | 1.6 | 4.8 | 0.00 | 0.00 | 0.00 | 53 | 1008.3 |
| 20260509170822 | 20 | 199 | 3.2 | 11.3 | 0.00 | 0.00 | 0.00 | 53 | 1008.2 |
| 20260509170318 | 19 | 65 | 3.2 | 11.3 | 0.00 | 0.00 | 0.00 | 52 | 1008.2 |
| 20260509165818 | 20 | 263 | 1.6 | 12.9 | 0.00 | 0.00 | 0.00 | 51 | 1008.4 |
| 20260509165313 | 19 | 156 | 6.4 | 6.4 | 0.00 | 0.00 | 0.00 | 50 | 1008.3 |
| 20260509164809 | 20 | 235 | 8.0 | 14.5 | 0.00 | 0.00 | 0.00 | 51 | 1008.3 |
| 20260509164305 | 20 | 281 | 4.8 | 9.7 | 0.00 | 0.00 | 0.00 | 52 | 1008.2 |
| 20260509163802 | 20 | 301 | 8.0 | 11.3 | 0.00 | 0.00 | 0.00 | 52 | 1008.3 |
| 20260509163258 | 20 | 154 | 3.2 | 9.7 | 0.00 | 0.00 | 0.00 | 53 | 1008.2 |
| 20260509162757 | 20 | 191 | 3.2 | 12.9 | 0.00 | 0.00 | 0.00 | 50 | 1008.3 |
| 20260509162251 | 20 | 187 | 6.4 | 12.9 | 0.00 | 0.00 | 0.00 | 48 | 1008.3 |
| 20260509161747 | 20 | 292 | 1.6 | 11.3 | 0.00 | 0.00 | 0.00 | 51 | 1008.2 |
| 20260509161243 | 20 | 246 | 3.2 | 9.7 | 0.00 | 0.00 | 0.00 | 53 | 1008.2 |
| 20260509160738 | 19 | 203 | 3.2 | 9.7 | 0.00 | 0.00 | 0.00 | 54 | 1008.4 |
| 20260509160235 | 18 | 225 | 6.4 | 9.7 | 0.00 | 0.00 | 0.00 | 55 | 1008.3 |
| 20260509155730 | 18 | 181 | 8.0 | 12.9 | 0.00 | 0.00 | 0.00 | 54 | 1008.3 |
| 20260509155227 | 18 | 174 | 4.8 | 11.3 | 0.00 | 0.00 | 0.00 | 55 | 1008.4 |
| 20260509154723 | 18 | 295 | 4.8 | 11.3 | 0.00 | 0.00 | 0.00 | 58 | 1008.2 |
| 20260509154220 | 18 | 238 | 3.2 | 9.7 | 0.00 | 0.00 | 0.00 | 57 | 1008.5 |
| 20260509153718 | 18 | 165 | 4.8 | 12.9 | 0.00 | 0.00 | 0.00 | 58 | 1008.4 |
| 20260509153214 | 18 | 213 | 3.2 | 11.3 | 0.00 | 0.00 | 0.00 | 56 | 1008.4 |
| 20260509152710 | 18 | 280 | 8.0 | 12.9 | 0.00 | 0.00 | 0.00 | 54 | 1008.4 |
| 20260509152207 | 18 | 114 | 8.0 | 14.5 | 0.00 | 0.00 | 0.00 | 54 | 1008.3 |
| 20260509151704 | 19 | 256 | 6.4 | 12.9 | 0.00 | 0.00 | 0.00 | 53 | 1008.3 |
| 20260509151201 | 20 | 295 | 3.2 | 6.4 | 0.00 | 0.00 | 0.00 | 54 | 1008.4 |
| 20260509150658 | 18 | 322 | 1.6 | 3.2 | 0.00 | 0.00 | 0.00 | 55 | 1008.1 |
| 20260509150157 | 18 | 300 | 6.4 | 6.4 | 0.00 | 0.00 | 0.00 | 55 | 1008.3 |
| 20260509145652 | 18 | 297 | 3.2 | 9.7 | 0.00 | 0.00 | 0.00 | 55 | 1008.0 |
| 20260509145148 | 18 | 282 | 1.6 | 6.4 | 0.00 | 0.00 | 0.00 | 58 | 1008.4 |
| 20260509144644 | 18 | 265 | 6.4 | 11.3 | 0.00 | 0.00 | 0.00 | 57 | 1008.5 |
| 20260509144142 | 18 | 279 | 4.8 | 9.7 | 0.00 | 0.00 | 0.00 | 57 | 1008.2 |
| 20260509143639 | 18 | 200 | 1.6 | 4.8 | 0.00 | 0.00 | 0.00 | 58 | 1008.3 |
| 20260509143136 | 18 | 197 | 4.8 | 6.4 | 0.00 | 0.00 | 0.00 | 59 | 1008.3 |
| 20260509142631 | 18 | 216 | 8.0 | 11.3 | 0.00 | 0.00 | 0.00 | 56 | 1008.2 |
| 20260509142128 | 18 | 65 | 1.6 | 1.6 | 0.00 | 0.00 | 0.00 | 55 | 1008.3 |
| 20260509141624 | 17 | 219 | 1.6 | 3.2 | 0.00 | 0.00 | 0.00 | 61 | 1008.3 |
| 20260509141121 | 17 | 227 | 4.8 | 6.4 | 0.00 | 0.00 | 0.00 | 58 | 1008.7 |
| 20260509140618 | 17 | 143 | 1.6 | 4.8 | 0.00 | 0.00 | 0.00 | 62 | 1008.7 |
| 20260509140116 | 17 | 231 | 1.6 | 9.7 | 0.00 | 0.00 | 0.00 | 62 | 1008.6 |
| 20260509135612 | 17 | 185 | 1.6 | 4.8 | 0.00 | 0.00 | 0.00 | 60 | 1009.2 |
| 20260509135111 | 16 | 188 | 3.2 | 4.8 | 0.00 | 0.00 | 0.00 | 63 | 1009.0 |
| 20260509134607 | 16 | 202 | 3.2 | 6.4 | 0.00 | 0.00 | 0.00 | 63 | 1009.2 |
| 20260509134104 | 16 | 286 | 0.0 | 3.2 | 0.00 | 0.00 | 0.00 | 62 | 1009.4 |
| 20260509133601 | 15 | 282 | 1.6 | 4.8 | 0.00 | 0.00 | 0.00 | 64 | 1009.5 |
| 20260509133059 | 15 | 230 | 0.0 | 6.4 | 0.00 | 0.00 | 0.00 | 63 | 1009.5 |
| 20260509132557 | 15 | 180 | 0.0 | 4.8 | 0.00 | 0.00 | 0.00 | 64 | 1009.6 |
| 20260509132055 | 15 | 198 | 3.2 | 9.7 | 0.00 | 0.00 | 0.00 | 63 | 1009.5 |
| 20260509131550 | 15 | 170 | 1.6 | 3.2 | 0.00 | 0.00 | 0.00 | 65 | 1009.5 |
| 20260509131048 | 14 | 223 | 3.2 | 3.2 | 0.00 | 0.00 | 0.00 | 63 | 1009.5 |
| 20260509130543 | 14 | 272 | 3.2 | 3.2 | 0.00 | 0.00 | 0.00 | 64 | 1009.4 |
| 20260509130040 | 14 | 243 | 0.0 | 4.8 | 0.00 | 0.00 | 0.00 | 64 | 1009.5 |
| 20260509125536 | 13 | 239 | 1.6 | 3.2 | 0.00 | 0.00 | 0.00 | 65 | 1009.4 |
| 20260509125033 | 13 | 165 | 4.8 | 6.4 | 0.00 | 0.00 | 0.00 | 65 | 1009.5 |
| 20260509124530 | 13 | 192 | 3.2 | 6.4 | 0.00 | 0.00 | 0.00 | 64 | 1009.5 |
| 20260509124027 | 13 | 188 | 1.6 | 3.2 | 0.00 | 0.00 | 0.00 | 65 | 1009.4 |
| 20260509123525 | 13 | 166 | 1.6 | 3.2 | 0.00 | 0.00 | 0.00 | 65 | 1009.2 |
| 20260509123021 | 13 | 175 | 0.0 | 1.6 | 0.00 | 0.00 | 0.00 | 66 | 1009.2 |
| 20260509122518 | 13 | 198 | 1.6 | 3.2 | 0.00 | 0.00 | 0.00 | 65 | 1009.3 |
| 20260509122015 | 13 | 213 | 0.0 | 3.2 | 0.00 | 0.00 | 0.00 | 66 | 1009.4 |
| 20260509121511 | 13 | 197 | 0.0 | 1.6 | 0.00 | 0.00 | 0.00 | 64 | 1009.5 |
| 20260509121009 | 13 | 150 | 1.6 | 1.6 | 0.00 | 0.00 | 0.00 | 65 | 1009.6 |
| 20260509120507 | 13 | 148 | 0.0 | 1.6 | 0.00 | 0.00 | 0.00 | 65 | 1009.5 |
| 20260509120005 | 13 | 112 | 0.0 | 0.0 | 0.00 | 0.00 | 0.00 | 64 | 1009.6 |
| 20260509115502 | 13 | 128 | 0.0 | 1.6 | 0.00 | 0.00 | 0.00 | 65 | 1009.5 |
| 20260509114959 | 12 | 98 | 0.0 | 1.6 | 0.00 | 0.00 | 0.00 | 64 | 1009.6 |
| 20260509114457 | 12 | 103 | 0.0 | 0.0 | 0.00 | 0.00 | 0.00 | 64 | 1009.3 |
| 20260509113956 | 12 | 104 | 0.0 | 1.6 | 0.00 | 0.00 | 0.00 | 64 | 1009.3 |
| 20260509113453 | 12 | 203 | 1.6 | 1.6 | 0.00 | 0.00 | 0.00 | 63 | 1009.5 |
| 20260509112950 | 12 | 95 | 0.0 | 1.6 | 0.00 | 0.00 | 0.00 | 62 | 1009.5 |
| 20260509112448 | 12 | 87 | 0.0 | 0.0 | 0.00 | 0.00 | 0.00 | 62 | 1009.5 |
| 20260509111944 | 12 | 211 | 1.6 | 3.2 | 0.00 | 0.00 | 0.00 | 61 | 1009.4 |
| 20260509111442 | 12 | 123 | 0.0 | 1.6 | 0.00 | 0.00 | 0.00 | 62 | 1009.6 |
| 20260509110939 | 12 | 222 | 0.0 | 0.0 | 0.00 | 0.00 | 0.00 | 61 | 1009.5 |
| 20260509110435 | 12 | 195 | 0.0 | 0.0 | 0.00 | 0.00 | 0.00 | 61 | 1009.3 |
| 20260509105933 | 11 | 195 | 0.0 | 0.0 | 0.00 | 0.00 | 0.00 | 62 | 1009.4 |
| 20260509105432 | 11 | 195 | 0.0 | 0.0 | 0.00 | 0.00 | 0.00 | 62 | 1009.3 |
| 20260509104928 | 11 | 233 | 0.0 | 0.0 | 0.00 | 0.00 | 0.00 | 62 | 1009.4 |
| 20260509104425 | 11 | 233 | 0.0 | 0.0 | 0.00 | 0.00 | 0.00 | 62 | 1009.4 |
| 20260509103922 | 11 | 233 | 0.0 | 0.0 | 0.00 | 0.00 | 0.00 | 62 | 1009.4 |
| 20260509103419 | 11 | 233 | 0.0 | 0.0 | 0.00 | 0.00 | 0.00 | 62 | 1009.4 |
| 20260509102918 | 11 | 233 | 0.0 | 0.0 | 0.00 | 0.00 | 0.00 | 63 | 1009.5 |
| 20260509102415 | 11 | 233 | 0.0 | 0.0 | 0.00 | 0.00 | 0.00 | 64 | 1009.5 |
| 20260509101910 | 11 | 233 | 0.0 | 0.0 | 0.00 | 0.00 | 0.00 | 64 | 1009.4 |
| 20260509101407 | 11 | 233 | 0.0 | 0.0 | 0.00 | 0.00 | 0.00 | 64 | 1009.4 |
| 20260509100905 | 11 | 233 | 0.0 | 0.0 | 0.00 | 0.00 | 0.00 | 62 | 1009.5 |
| 20260509100402 | 11 | 233 | 0.0 | 0.0 | 0.00 | 0.00 | 0.00 | 62 | 1009.6 |
| 20260509095858 | 11 | 233 | 0.0 | 0.0 | 0.00 | 0.00 | 0.00 | 62 | 1009.3 |
| 20260509095356 | 11 | 233 | 0.0 | 1.6 | 0.00 | 0.00 | 0.00 | 60 | 1009.4 |
| 20260509094853 | 11 | 186 | 0.0 | 0.0 | 0.00 | 0.00 | 0.00 | 60 | 1009.6 |
| 20260509094349 | 11 | 186 | 0.0 | 0.0 | 0.00 | 0.00 | 0.00 | 59 | 1009.5 |
| 20260509093847 | 11 | 186 | 0.0 | 0.0 | 0.00 | 0.00 | 0.00 | 59 | 1009.5 |
| 20260509093344 | 11 | 186 | 0.0 | 0.0 | 0.00 | 0.00 | 0.00 | 60 | 1009.5 |
| 20260509092843 | 10 | 186 | 0.0 | 0.0 | 0.00 | 0.00 | 0.00 | 61 | 1009.7 |
| 20260509092340 | 11 | 186 | 0.0 | 0.0 | 0.00 | 0.00 | 0.00 | 60 | 1009.6 |
| 20260509091838 | 11 | 186 | 0.0 | 0.0 | 0.00 | 0.00 | 0.00 | 58 | 1009.5 |
| 20260509091334 | 11 | 186 | 0.0 | 0.0 | 0.00 | 0.00 | 0.00 | 58 | 1009.9 |
| 20260509090832 | 10 | 186 | 0.0 | 0.0 | 0.00 | 0.00 | 0.00 | 59 | 1009.9 |
| 20260509090329 | 11 | 186 | 0.0 | 0.0 | 0.00 | 0.00 | 0.00 | 58 | 1009.5 |
| 20260509085826 | 11 | 186 | 0.0 | 0.0 | 0.00 | 0.00 | 0.00 | 58 | 1009.6 |
| 20260509085324 | 11 | 186 | 0.0 | 0.0 | 0.00 | 0.00 | 0.00 | 59 | 1009.8 |
| 20260509084820 | 11 | 186 | 0.0 | 0.0 | 0.00 | 0.00 | 0.00 | 60 | 1009.7 |
| 20260509084317 | 11 | 186 | 0.0 | 0.0 | 0.00 | 0.00 | 0.00 | 60 | 1009.7 |
| 20260509083815 | 11 | 186 | 0.0 | 0.0 | 0.00 | 0.00 | 0.00 | 60 | 1009.8 |
| 20260509083311 | 11 | 186 | 0.0 | 0.0 | 0.00 | 0.00 | 0.00 | 59 | 1009.6 |
| 20260509082808 | 11 | 186 | 0.0 | 0.0 | 0.00 | 0.00 | 0.00 | 59 | 1009.9 |
| 20260509082306 | 11 | 186 | 0.0 | 0.0 | 0.00 | 0.00 | 0.00 | 59 | 1009.8 |
| 20260509081801 | 11 | 186 | 0.0 | 0.0 | 0.00 | 0.00 | 0.00 | 58 | 1009.7 |
| 20260509081259 | 12 | 186 | 0.0 | 0.0 | 0.00 | 0.00 | 0.00 | 57 | 1009.9 |
| 20260509080757 | 12 | 186 | 0.0 | 0.0 | 0.00 | 0.00 | 0.00 | 57 | 1009.8 |
| 20260509080254 | 12 | 186 | 0.0 | 0.0 | 0.00 | 0.00 | 0.00 | 55 | 1010.0 |
| 20260509075752 | 12 | 186 | 0.0 | 1.6 | 0.00 | 0.00 | 0.00 | 54 | 1010.0 |
| 20260509075249 | 12 | 196 | 1.6 | 1.6 | 0.00 | 0.00 | 0.00 | 54 | 1009.9 |
| 20260509074746 | 12 | 186 | 1.6 | 1.6 | 0.00 | 0.00 | 0.00 | 53 | 1009.9 |
| 20260509074244 | 13 | 243 | 1.6 | 3.2 | 0.00 | 0.00 | 0.00 | 52 | 1010.0 |
| 20260509073740 | 13 | 240 | 4.8 | 6.4 | 0.00 | 0.00 | 0.00 | 52 | 1010.2 |
| 20260509073237 | 12 | 200 | 0.0 | 4.8 | 0.00 | 0.00 | 0.00 | 52 | 1010.3 |
| 20260509072733 | 12 | 224 | 1.6 | 4.8 | 0.00 | 0.00 | 0.00 | 53 | 1010.2 |
| 20260509072230 | 12 | 131 | 0.0 | 0.0 | 0.00 | 0.00 | 0.00 | 55 | 1010.5 |
| 20260509071727 | 12 | 207 | 0.0 | 0.0 | 0.00 | 0.00 | 0.00 | 56 | 1010.3 |
| 20260509071224 | 12 | 206 | 0.0 | 0.0 | 0.00 | 0.00 | 0.00 | 56 | 1010.4 |
| 20260509070721 | 12 | 206 | 0.0 | 0.0 | 0.00 | 0.00 | 0.00 | 57 | 1010.5 |
| 20260509070217 | 12 | 206 | 0.0 | 0.0 | 0.00 | 0.00 | 0.00 | 55 | 1010.4 |
| 20260509065713 | 12 | 192 | 0.0 | 0.0 | 0.00 | 0.00 | 0.00 | 54 | 1010.3 |
| 20260509065209 | 13 | 191 | 0.0 | 1.6 | 0.00 | 0.00 | 0.00 | 52 | 1010.5 |
| 20260509064706 | 13 | 289 | 0.0 | 1.6 | 0.00 | 0.00 | 0.00 | 51 | 1010.5 |
| 20260509064204 | 13 | 293 | 1.6 | 3.2 | 0.00 | 0.00 | 0.00 | 51 | 1010.6 |
| 20260509063701 | 13 | 254 | 0.0 | 3.2 | 0.00 | 0.00 | 0.00 | 51 | 1010.5 |
| 20260509063157 | 13 | 311 | 3.2 | 11.3 | 0.00 | 0.00 | 0.00 | 49 | 1010.4 |
| 20260509062655 | 13 | 238 | 3.2 | 6.4 | 0.00 | 0.00 | 0.00 | 50 | 1010.6 |
| 20260509062152 | 13 | 232 | 1.6 | 4.8 | 0.00 | 0.00 | 0.00 | 51 | 1010.8 |
| 20260509061648 | 13 | 312 | 3.2 | 3.2 | 0.00 | 0.00 | 0.00 | 51 | 1010.7 |
| 20260509061146 | 13 | 286 | 1.6 | 1.6 | 0.00 | 0.00 | 0.00 | 51 | 1010.9 |
| 20260509060643 | 13 | 239 | 1.6 | 3.2 | 0.00 | 0.00 | 0.00 | 52 | 1010.9 |
| 20260509060139 | 13 | 182 | 1.6 | 1.6 | 0.00 | 0.00 | 0.00 | 52 | 1011.0 |
| 20260509055635 | 13 | 241 | 0.0 | 3.2 | 0.00 | 0.00 | 0.00 | 52 | 1010.8 |
| 20260509055131 | 12 | 255 | 0.0 | 0.0 | 0.00 | 0.00 | 0.00 | 53 | 1010.8 |
| 20260509054628 | 12 | 245 | 0.0 | 1.6 | 0.00 | 0.00 | 0.00 | 54 | 1010.9 |
| 20260509054126 | 11 | 296 | 1.6 | 4.8 | 0.00 | 0.00 | 0.00 | 56 | 1010.9 |
| 20260509053624 | 11 | 304 | 0.0 | 0.0 | 0.00 | 0.00 | 0.00 | 58 | 1010.9 |
| 20260509053121 | 11 | 317 | 0.0 | 1.6 | 0.00 | 0.00 | 0.00 | 58 | 1011.1 |
| 20260509052619 | 11 | 315 | 1.6 | 1.6 | 0.00 | 0.00 | 0.00 | 57 | 1011.2 |
| 20260509052116 | 11 | 312 | 0.0 | 1.6 | 0.00 | 0.00 | 0.00 | 57 | 1010.9 |
| 20260509051614 | 11 | 304 | 1.6 | 1.6 | 0.00 | 0.00 | 0.00 | 57 | 1011.3 |
| 20260509051111 | 11 | 332 | 0.0 | 1.6 | 0.00 | 0.00 | 0.00 | 56 | 1011.1 |
| 20260509050608 | 11 | 309 | 0.0 | 0.0 | 0.00 | 0.00 | 0.00 | 58 | 1011.2 |
| 20260509045602 | 11 | 303 | 0.0 | 0.0 | 0.00 | 0.00 | 0.00 | 58 | 1011.0 |
| 20260509045058 | 11 | 297 | 0.0 | 0.0 | 0.00 | 0.00 | 0.00 | 57 | 1010.9 |
| 20260509044556 | 11 | 305 | 0.0 | 0.0 | 0.00 | 0.00 | 0.00 | 58 | 1010.9 |
| 20260509044053 | 11 | 300 | 0.0 | 1.6 | 0.00 | 0.00 | 0.00 | 57 | 1011.1 |
| 20260509043549 | 11 | 294 | 0.0 | 0.0 | 0.00 | 0.00 | 0.00 | 58 | 1010.8 |
| 20260509043045 | 11 | 292 | 0.0 | 0.0 | 0.00 | 0.00 | 0.00 | 58 | 1011.0 |
| 20260509042541 | 11 | 346 | 0.0 | 0.0 | 0.00 | 0.00 | 0.00 | 59 | 1010.9 |
| 20260509042037 | 11 | 311 | 0.0 | 0.0 | 0.00 | 0.00 | 0.00 | 59 | 1011.1 |
| 20260509041534 | 11 | 325 | 0.0 | 0.0 | 0.00 | 0.00 | 0.00 | 58 | 1011.0 |
| 20260509041032 | 11 | 324 | 0.0 | 0.0 | 0.00 | 0.00 | 0.00 | 58 | 1010.8 |
| 20260509040530 | 11 | 324 | 0.0 | 0.0 | 0.00 | 0.00 | 0.00 | 58 | 1010.8 |
| 20260509040027 | 12 | 341 | 0.0 | 0.0 | 0.00 | 0.00 | 0.00 | 57 | 1010.9 |
| 20260509035524 | 12 | 291 | 0.0 | 0.0 | 0.00 | 0.00 | 0.00 | 56 | 1010.8 |
| 20260509035020 | 12 | 305 | 0.0 | 0.0 | 0.00 | 0.00 | 0.00 | 55 | 1010.9 |
| 20260509034519 | 12 | 302 | 0.0 | 3.2 | 0.00 | 0.00 | 0.00 | 56 | 1010.9 |
| 20260509034015 | 12 | 281 | 1.6 | 3.2 | 0.00 | 0.00 | 0.00 | 55 | 1010.8 |
| 20260509033512 | 12 | 302 | 1.6 | 1.6 | 0.00 | 0.00 | 0.00 | 55 | 1010.9 |
| 20260509033009 | 12 | 291 | 1.6 | 3.2 | 0.00 | 0.00 | 0.00 | 54 | 1010.8 |
| 20260509032506 | 12 | 301 | 0.0 | 1.6 | 0.00 | 0.00 | 0.00 | 55 | 1010.8 |
| 20260509032003 | 13 | 291 | 1.6 | 3.2 | 0.00 | 0.00 | 0.00 | 54 | 1011.0 |
| 20260509031500 | 13 | 298 | 0.0 | 3.2 | 0.00 | 0.00 | 0.00 | 53 | 1010.9 |
| 20260509030958 | 13 | 253 | 1.6 | 3.2 | 0.00 | 0.00 | 0.00 | 53 | 1011.0 |
| 20260509030456 | 13 | 270 | 0.0 | 4.8 | 0.00 | 0.00 | 0.00 | 52 | 1010.9 |
| 20260509025953 | 13 | 303 | 1.6 | 3.2 | 0.00 | 0.00 | 0.00 | 52 | 1011.0 |
| 20260509025449 | 13 | 209 | 3.2 | 6.4 | 0.00 | 0.00 | 0.00 | 52 | 1010.9 |
| 20260509024944 | 13 | 279 | 3.2 | 4.8 | 0.00 | 0.00 | 0.00 | 53 | 1011.1 |
| 20260509024440 | 13 | 271 | 1.6 | 3.2 | 0.00 | 0.00 | 0.00 | 53 | 1011.2 |
| 20260509023937 | 13 | 319 | 3.2 | 3.2 | 0.00 | 0.00 | 0.00 | 53 | 1011.2 |
| 20260509023435 | 13 | 285 | 1.6 | 3.2 | 0.00 | 0.00 | 0.00 | 52 | 1011.2 |
| 20260509022931 | 13 | 302 | 3.2 | 3.2 | 0.00 | 0.00 | 0.00 | 52 | 1011.3 |
| 20260509022428 | 13 | 304 | 3.2 | 4.8 | 0.00 | 0.00 | 0.00 | 52 | 1011.3 |
| 20260509021926 | 13 | 286 | 3.2 | 9.7 | 0.00 | 0.00 | 0.00 | 52 | 1011.2 |
| 20260509021422 | 14 | 286 | 1.6 | 4.8 | 0.00 | 0.00 | 0.00 | 52 | 1011.2 |
| 20260509020920 | 14 | 295 | 1.6 | 4.8 | 0.00 | 0.00 | 0.00 | 52 | 1010.9 |
| 20260509020418 | 14 | 296 | 3.2 | 4.8 | 0.00 | 0.00 | 0.00 | 51 | 1011.0 |